sensor_id;sensor_type;location;lat;lon;timestamp;P1;durP1;ratioP1;P2;durP2;ratioP2
12437;SDS011;6283;51.330;12.374;2024-01-15T00:01:49;13.63;;;8.13;;
12437;SDS011;6283;51.330;12.374;2024-01-15T00:04:15;9.40;;;6.00;;
12437;SDS011;6283;51.330;12.374;2024-01-15T00:06:40;12.60;;;7.37;;
12437;SDS011;6283;51.330;12.374;2024-01-15T00:09:06;10.77;;;7.07;;
12437;SDS011;6283;51.330;12.374;2024-01-15T00:11:31;10.60;;;6.80;;
12437;SDS011;6283;51.330;12.374;2024-01-15T00:13:58;11.37;;;6.50;;
12437;SDS011;6283;51.330;12.374;2024-01-15T00:16:23;10.37;;;7.53;;
12437;SDS011;6283;51.330;12.374;2024-01-15T00:18:49;11.57;;;7.67;;
12437;SDS011;6283;51.330;12.374;2024-01-15T00:21:15;12.13;;;7.67;;
12437;SDS011;6283;51.330;12.374;2024-01-15T00:23:44;14.37;;;7.90;;
12437;SDS011;6283;51.330;12.374;2024-01-15T00:26:09;11.80;;;7.40;;
12437;SDS011;6283;51.330;12.374;2024-01-15T00:28:36;14.40;;;7.47;;
12437;SDS011;6283;51.330;12.374;2024-01-15T00:31:02;14.47;;;7.70;;
12437;SDS011;6283;51.330;12.374;2024-01-15T00:33:29;15.17;;;7.93;;
12437;SDS011;6283;51.330;12.374;2024-01-15T00:35:54;12.83;;;7.70;;
12437;SDS011;6283;51.330;12.374;2024-01-15T00:38:20;12.47;;;7.63;;
12437;SDS011;6283;51.330;12.374;2024-01-15T00:40:46;13.70;;;7.87;;
12437;SDS011;6283;51.330;12.374;2024-01-15T00:43:11;13.53;;;8.13;;
12437;SDS011;6283;51.330;12.374;2024-01-15T00:45:37;11.10;;;6.97;;
12437;SDS011;6283;51.330;12.374;2024-01-15T00:48:03;10.60;;;7.03;;
12437;SDS011;6283;51.330;12.374;2024-01-15T00:50:29;11.80;;;6.83;;
12437;SDS011;6283;51.330;12.374;2024-01-15T00:52:55;13.37;;;7.40;;
12437;SDS011;6283;51.330;12.374;2024-01-15T00:55:20;11.30;;;6.53;;
12437;SDS011;6283;51.330;12.374;2024-01-15T00:57:46;15.77;;;7.50;;
12437;SDS011;6283;51.330;12.374;2024-01-15T01:00:11;12.33;;;6.87;;
12437;SDS011;6283;51.330;12.374;2024-01-15T01:02:37;11.50;;;7.40;;
12437;SDS011;6283;51.330;12.374;2024-01-15T01:05:03;13.33;;;7.63;;
12437;SDS011;6283;51.330;12.374;2024-01-15T01:07:29;14.60;;;7.10;;
12437;SDS011;6283;51.330;12.374;2024-01-15T01:09:55;13.43;;;7.53;;
12437;SDS011;6283;51.330;12.374;2024-01-15T01:12:20;12.27;;;7.13;;
12437;SDS011;6283;51.330;12.374;2024-01-15T01:14:46;12.67;;;7.20;;
12437;SDS011;6283;51.330;12.374;2024-01-15T01:17:12;12.80;;;7.70;;
12437;SDS011;6283;51.330;12.374;2024-01-15T01:19:37;12.00;;;7.77;;
12437;SDS011;6283;51.330;12.374;2024-01-15T01:22:03;15.83;;;9.10;;
12437;SDS011;6283;51.330;12.374;2024-01-15T01:24:29;14.13;;;8.03;;
12437;SDS011;6283;51.330;12.374;2024-01-15T01:26:54;12.40;;;6.97;;
12437;SDS011;6283;51.330;12.374;2024-01-15T01:29:20;12.77;;;7.37;;
12437;SDS011;6283;51.330;12.374;2024-01-15T01:31:45;12.70;;;7.00;;
12437;SDS011;6283;51.330;12.374;2024-01-15T01:34:15;12.50;;;7.53;;
12437;SDS011;6283;51.330;12.374;2024-01-15T01:36:44;14.47;;;7.33;;
12437;SDS011;6283;51.330;12.374;2024-01-15T01:39:10;15.67;;;8.43;;
12437;SDS011;6283;51.330;12.374;2024-01-15T01:41:36;13.33;;;6.90;;
12437;SDS011;6283;51.330;12.374;2024-01-15T01:44:03;15.33;;;7.93;;
12437;SDS011;6283;51.330;12.374;2024-01-15T01:46:28;13.90;;;7.90;;
12437;SDS011;6283;51.330;12.374;2024-01-15T01:48:54;12.73;;;7.50;;
12437;SDS011;6283;51.330;12.374;2024-01-15T01:51:24;12.03;;;7.03;;
12437;SDS011;6283;51.330;12.374;2024-01-15T01:53:50;11.87;;;7.50;;
12437;SDS011;6283;51.330;12.374;2024-01-15T01:56:16;13.80;;;7.63;;
12437;SDS011;6283;51.330;12.374;2024-01-15T01:58:43;14.97;;;7.33;;
12437;SDS011;6283;51.330;12.374;2024-01-15T02:01:12;14.00;;;7.53;;
12437;SDS011;6283;51.330;12.374;2024-01-15T02:03:39;14.87;;;7.67;;
12437;SDS011;6283;51.330;12.374;2024-01-15T02:06:05;14.50;;;7.73;;
12437;SDS011;6283;51.330;12.374;2024-01-15T02:08:31;10.83;;;6.07;;
12437;SDS011;6283;51.330;12.374;2024-01-15T02:10:56;15.63;;;7.27;;
12437;SDS011;6283;51.330;12.374;2024-01-15T02:13:22;13.17;;;7.33;;
12437;SDS011;6283;51.330;12.374;2024-01-15T02:15:48;14.73;;;7.30;;
12437;SDS011;6283;51.330;12.374;2024-01-15T02:18:13;13.43;;;6.90;;
12437;SDS011;6283;51.330;12.374;2024-01-15T02:20:39;14.10;;;7.53;;
12437;SDS011;6283;51.330;12.374;2024-01-15T02:25:39;13.00;;;7.13;;
12437;SDS011;6283;51.330;12.374;2024-01-15T02:28:07;11.97;;;6.30;;
12437;SDS011;6283;51.330;12.374;2024-01-15T02:30:39;14.50;;;8.07;;
12437;SDS011;6283;51.330;12.374;2024-01-15T02:33:08;13.30;;;7.43;;
12437;SDS011;6283;51.330;12.374;2024-01-15T02:35:35;13.43;;;7.97;;
12437;SDS011;6283;51.330;12.374;2024-01-15T02:38:01;13.73;;;7.27;;
12437;SDS011;6283;51.330;12.374;2024-01-15T02:40:28;12.23;;;6.73;;
12437;SDS011;6283;51.330;12.374;2024-01-15T02:42:54;13.17;;;7.23;;
12437;SDS011;6283;51.330;12.374;2024-01-15T02:45:19;13.83;;;6.63;;
12437;SDS011;6283;51.330;12.374;2024-01-15T02:47:46;10.17;;;6.13;;
12437;SDS011;6283;51.330;12.374;2024-01-15T02:50:12;10.20;;;6.67;;
12437;SDS011;6283;51.330;12.374;2024-01-15T02:52:38;13.70;;;7.50;;
12437;SDS011;6283;51.330;12.374;2024-01-15T02:55:04;12.73;;;6.57;;
12437;SDS011;6283;51.330;12.374;2024-01-15T02:57:30;11.60;;;6.70;;
12437;SDS011;6283;51.330;12.374;2024-01-15T02:59:55;13.80;;;6.70;;
12437;SDS011;6283;51.330;12.374;2024-01-15T03:02:21;13.83;;;7.07;;
12437;SDS011;6283;51.330;12.374;2024-01-15T03:04:47;13.20;;;6.90;;
12437;SDS011;6283;51.330;12.374;2024-01-15T03:07:12;13.27;;;6.87;;
12437;SDS011;6283;51.330;12.374;2024-01-15T03:09:38;11.70;;;6.37;;
12437;SDS011;6283;51.330;12.374;2024-01-15T03:12:03;11.67;;;6.03;;
12437;SDS011;6283;51.330;12.374;2024-01-15T03:14:29;14.47;;;7.37;;
12437;SDS011;6283;51.330;12.374;2024-01-15T03:16:55;11.83;;;7.03;;
12437;SDS011;6283;51.330;12.374;2024-01-15T03:19:21;10.80;;;6.00;;
12437;SDS011;6283;51.330;12.374;2024-01-15T03:21:47;13.50;;;6.87;;
12437;SDS011;6283;51.330;12.374;2024-01-15T03:24:12;12.10;;;6.60;;
12437;SDS011;6283;51.330;12.374;2024-01-15T03:26:38;12.83;;;6.57;;
12437;SDS011;6283;51.330;12.374;2024-01-15T03:29:04;11.70;;;6.17;;
12437;SDS011;6283;51.330;12.374;2024-01-15T03:31:29;10.90;;;6.70;;
12437;SDS011;6283;51.330;12.374;2024-01-15T03:33:55;12.70;;;6.53;;
12437;SDS011;6283;51.330;12.374;2024-01-15T03:36:21;11.33;;;6.00;;
12437;SDS011;6283;51.330;12.374;2024-01-15T03:38:47;11.70;;;6.77;;
12437;SDS011;6283;51.330;12.374;2024-01-15T03:41:12;12.27;;;7.20;;
12437;SDS011;6283;51.330;12.374;2024-01-15T03:43:38;11.17;;;5.73;;
12437;SDS011;6283;51.330;12.374;2024-01-15T03:46:04;12.70;;;6.73;;
12437;SDS011;6283;51.330;12.374;2024-01-15T03:48:30;10.77;;;6.30;;
12437;SDS011;6283;51.330;12.374;2024-01-15T03:50:56;10.37;;;5.53;;
12437;SDS011;6283;51.330;12.374;2024-01-15T03:53:21;11.40;;;6.33;;
12437;SDS011;6283;51.330;12.374;2024-01-15T03:55:47;13.13;;;6.00;;
12437;SDS011;6283;51.330;12.374;2024-01-15T03:58:14;11.20;;;6.50;;
12437;SDS011;6283;51.330;12.374;2024-01-15T04:00:40;12.17;;;6.13;;
12437;SDS011;6283;51.330;12.374;2024-01-15T04:03:06;11.17;;;5.53;;
12437;SDS011;6283;51.330;12.374;2024-01-15T04:05:31;10.90;;;5.93;;
12437;SDS011;6283;51.330;12.374;2024-01-15T04:07:57;11.30;;;5.43;;
12437;SDS011;6283;51.330;12.374;2024-01-15T04:10:23;11.73;;;6.33;;
12437;SDS011;6283;51.330;12.374;2024-01-15T04:12:48;9.57;;;6.03;;
12437;SDS011;6283;51.330;12.374;2024-01-15T04:15:14;10.73;;;6.20;;
12437;SDS011;6283;51.330;12.374;2024-01-15T04:17:40;11.47;;;6.33;;
12437;SDS011;6283;51.330;12.374;2024-01-15T04:20:06;9.83;;;5.67;;
12437;SDS011;6283;51.330;12.374;2024-01-15T04:22:33;9.13;;;5.53;;
12437;SDS011;6283;51.330;12.374;2024-01-15T04:25:02;9.40;;;5.37;;
12437;SDS011;6283;51.330;12.374;2024-01-15T04:27:28;11.97;;;5.70;;
12437;SDS011;6283;51.330;12.374;2024-01-15T04:29:54;11.10;;;5.80;;
12437;SDS011;6283;51.330;12.374;2024-01-15T04:32:19;10.53;;;5.23;;
12437;SDS011;6283;51.330;12.374;2024-01-15T04:34:45;10.43;;;5.33;;
12437;SDS011;6283;51.330;12.374;2024-01-15T04:37:11;9.00;;;5.20;;
12437;SDS011;6283;51.330;12.374;2024-01-15T04:39:38;9.03;;;5.50;;
12437;SDS011;6283;51.330;12.374;2024-01-15T04:42:03;7.40;;;4.60;;
12437;SDS011;6283;51.330;12.374;2024-01-15T04:44:29;11.40;;;5.40;;
12437;SDS011;6283;51.330;12.374;2024-01-15T04:46:55;8.80;;;4.97;;
12437;SDS011;6283;51.330;12.374;2024-01-15T04:49:20;9.17;;;4.97;;
12437;SDS011;6283;51.330;12.374;2024-01-15T04:51:46;9.77;;;5.50;;
12437;SDS011;6283;51.330;12.374;2024-01-15T04:54:11;8.87;;;4.97;;
12437;SDS011;6283;51.330;12.374;2024-01-15T04:56:37;9.37;;;4.97;;
12437;SDS011;6283;51.330;12.374;2024-01-15T04:59:03;9.63;;;5.20;;
12437;SDS011;6283;51.330;12.374;2024-01-15T05:01:32;9.67;;;5.20;;
12437;SDS011;6283;51.330;12.374;2024-01-15T05:03:58;9.30;;;5.43;;
12437;SDS011;6283;51.330;12.374;2024-01-15T05:06:24;8.50;;;5.37;;
12437;SDS011;6283;51.330;12.374;2024-01-15T05:08:49;10.30;;;5.33;;
12437;SDS011;6283;51.330;12.374;2024-01-15T05:11:15;9.17;;;5.20;;
12437;SDS011;6283;51.330;12.374;2024-01-15T05:13:40;8.27;;;4.57;;
12437;SDS011;6283;51.330;12.374;2024-01-15T05:16:06;7.23;;;4.47;;
12437;SDS011;6283;51.330;12.374;2024-01-15T05:18:32;7.67;;;4.47;;
12437;SDS011;6283;51.330;12.374;2024-01-15T05:20:57;10.60;;;5.27;;
12437;SDS011;6283;51.330;12.374;2024-01-15T05:23:23;11.67;;;4.93;;
12437;SDS011;6283;51.330;12.374;2024-01-15T05:25:48;7.90;;;4.77;;
12437;SDS011;6283;51.330;12.374;2024-01-15T05:28:14;8.60;;;4.83;;
12437;SDS011;6283;51.330;12.374;2024-01-15T05:30:40;6.20;;;4.40;;
12437;SDS011;6283;51.330;12.374;2024-01-15T05:33:06;9.87;;;4.83;;
12437;SDS011;6283;51.330;12.374;2024-01-15T05:35:32;8.27;;;5.13;;
12437;SDS011;6283;51.330;12.374;2024-01-15T05:37:58;8.87;;;4.70;;
12437;SDS011;6283;51.330;12.374;2024-01-15T05:40:24;6.90;;;4.53;;
12437;SDS011;6283;51.330;12.374;2024-01-15T05:42:50;10.47;;;5.20;;
12437;SDS011;6283;51.330;12.374;2024-01-15T05:45:15;9.23;;;5.20;;
12437;SDS011;6283;51.330;12.374;2024-01-15T05:47:41;7.03;;;4.40;;
12437;SDS011;6283;51.330;12.374;2024-01-15T05:50:08;8.37;;;4.90;;
12437;SDS011;6283;51.330;12.374;2024-01-15T05:52:34;9.23;;;4.63;;
12437;SDS011;6283;51.330;12.374;2024-01-15T05:55:00;8.87;;;5.17;;
12437;SDS011;6283;51.330;12.374;2024-01-15T05:57:25;7.57;;;4.63;;
12437;SDS011;6283;51.330;12.374;2024-01-15T05:59:51;9.40;;;5.03;;
12437;SDS011;6283;51.330;12.374;2024-01-15T06:02:16;6.60;;;4.47;;
12437;SDS011;6283;51.330;12.374;2024-01-15T06:04:42;9.23;;;5.20;;
12437;SDS011;6283;51.330;12.374;2024-01-15T06:07:08;8.47;;;5.10;;
12437;SDS011;6283;51.330;12.374;2024-01-15T06:09:33;9.30;;;4.63;;
12437;SDS011;6283;51.330;12.374;2024-01-15T06:11:59;8.33;;;4.90;;
12437;SDS011;6283;51.330;12.374;2024-01-15T06:14:25;9.40;;;5.60;;
12437;SDS011;6283;51.330;12.374;2024-01-15T06:16:50;8.17;;;4.70;;
12437;SDS011;6283;51.330;12.374;2024-01-15T06:19:17;9.73;;;5.70;;
12437;SDS011;6283;51.330;12.374;2024-01-15T06:21:43;8.27;;;4.87;;
12437;SDS011;6283;51.330;12.374;2024-01-15T06:24:08;6.93;;;4.47;;
12437;SDS011;6283;51.330;12.374;2024-01-15T06:26:35;8.70;;;4.53;;
12437;SDS011;6283;51.330;12.374;2024-01-15T06:29:00;5.97;;;4.43;;
12437;SDS011;6283;51.330;12.374;2024-01-15T06:31:27;9.57;;;4.60;;
12437;SDS011;6283;51.330;12.374;2024-01-15T06:33:53;8.40;;;4.70;;
12437;SDS011;6283;51.330;12.374;2024-01-15T06:36:20;8.47;;;4.77;;
12437;SDS011;6283;51.330;12.374;2024-01-15T06:38:46;9.23;;;4.20;;
12437;SDS011;6283;51.330;12.374;2024-01-15T06:41:11;6.87;;;3.93;;
12437;SDS011;6283;51.330;12.374;2024-01-15T06:43:37;8.77;;;4.60;;
12437;SDS011;6283;51.330;12.374;2024-01-15T06:46:03;8.00;;;4.50;;
12437;SDS011;6283;51.330;12.374;2024-01-15T06:48:28;8.57;;;4.60;;
12437;SDS011;6283;51.330;12.374;2024-01-15T06:50:54;5.43;;;4.00;;
12437;SDS011;6283;51.330;12.374;2024-01-15T06:53:20;8.10;;;4.43;;
12437;SDS011;6283;51.330;12.374;2024-01-15T06:55:45;6.43;;;4.20;;
12437;SDS011;6283;51.330;12.374;2024-01-15T06:58:11;8.73;;;4.53;;
12437;SDS011;6283;51.330;12.374;2024-01-15T07:00:37;8.70;;;4.80;;
12437;SDS011;6283;51.330;12.374;2024-01-15T07:03:03;6.67;;;4.27;;
12437;SDS011;6283;51.330;12.374;2024-01-15T07:05:31;7.70;;;4.60;;
12437;SDS011;6283;51.330;12.374;2024-01-15T07:07:57;7.83;;;4.20;;
12437;SDS011;6283;51.330;12.374;2024-01-15T07:10:23;8.43;;;4.53;;
12437;SDS011;6283;51.330;12.374;2024-01-15T07:12:49;8.23;;;4.37;;
12437;SDS011;6283;51.330;12.374;2024-01-15T07:15:15;7.87;;;3.63;;
12437;SDS011;6283;51.330;12.374;2024-01-15T07:17:40;9.03;;;4.37;;
12437;SDS011;6283;51.330;12.374;2024-01-15T07:20:07;6.57;;;4.20;;
12437;SDS011;6283;51.330;12.374;2024-01-15T07:22:37;6.53;;;3.97;;
12437;SDS011;6283;51.330;12.374;2024-01-15T07:25:03;5.23;;;3.87;;
12437;SDS011;6283;51.330;12.374;2024-01-15T07:27:30;7.93;;;4.10;;
12437;SDS011;6283;51.330;12.374;2024-01-15T07:29:56;8.77;;;4.47;;
12437;SDS011;6283;51.330;12.374;2024-01-15T07:32:22;5.67;;;3.80;;
12437;SDS011;6283;51.330;12.374;2024-01-15T07:34:48;8.50;;;4.27;;
12437;SDS011;6283;51.330;12.374;2024-01-15T07:37:14;8.07;;;4.50;;
12437;SDS011;6283;51.330;12.374;2024-01-15T07:39:40;5.70;;;4.00;;
12437;SDS011;6283;51.330;12.374;2024-01-15T07:42:05;7.43;;;3.90;;
12437;SDS011;6283;51.330;12.374;2024-01-15T07:44:31;6.50;;;3.97;;
12437;SDS011;6283;51.330;12.374;2024-01-15T07:46:56;8.33;;;4.63;;
12437;SDS011;6283;51.330;12.374;2024-01-15T07:49:22;9.90;;;4.80;;
12437;SDS011;6283;51.330;12.374;2024-01-15T07:51:48;9.07;;;4.33;;
12437;SDS011;6283;51.330;12.374;2024-01-15T07:54:14;8.53;;;4.43;;
12437;SDS011;6283;51.330;12.374;2024-01-15T07:57:01;6.20;;;4.00;;
12437;SDS011;6283;51.330;12.374;2024-01-15T07:59:30;6.47;;;4.10;;
12437;SDS011;6283;51.330;12.374;2024-01-15T08:01:57;11.37;;;4.50;;
12437;SDS011;6283;51.330;12.374;2024-01-15T08:04:24;6.30;;;3.97;;
12437;SDS011;6283;51.330;12.374;2024-01-15T08:06:49;8.40;;;4.60;;
12437;SDS011;6283;51.330;12.374;2024-01-15T08:09:15;8.87;;;4.00;;
12437;SDS011;6283;51.330;12.374;2024-01-15T08:11:41;6.77;;;4.07;;
12437;SDS011;6283;51.330;12.374;2024-01-15T08:14:08;7.27;;;4.50;;
12437;SDS011;6283;51.330;12.374;2024-01-15T08:16:34;8.93;;;4.70;;
12437;SDS011;6283;51.330;12.374;2024-01-15T08:19:00;8.07;;;4.03;;
12437;SDS011;6283;51.330;12.374;2024-01-15T08:21:26;7.80;;;4.20;;
12437;SDS011;6283;51.330;12.374;2024-01-15T08:23:54;8.27;;;4.07;;
12437;SDS011;6283;51.330;12.374;2024-01-15T08:26:23;6.33;;;4.23;;
12437;SDS011;6283;51.330;12.374;2024-01-15T08:28:50;6.47;;;3.90;;
12437;SDS011;6283;51.330;12.374;2024-01-15T08:31:15;7.43;;;4.63;;
12437;SDS011;6283;51.330;12.374;2024-01-15T08:33:42;5.40;;;3.63;;
12437;SDS011;6283;51.330;12.374;2024-01-15T08:36:07;10.43;;;4.33;;
12437;SDS011;6283;51.330;12.374;2024-01-15T08:38:34;6.43;;;4.07;;
12437;SDS011;6283;51.330;12.374;2024-01-15T08:41:00;7.00;;;3.97;;
12437;SDS011;6283;51.330;12.374;2024-01-15T08:43:26;6.13;;;3.93;;
12437;SDS011;6283;51.330;12.374;2024-01-15T08:45:52;8.70;;;4.07;;
12437;SDS011;6283;51.330;12.374;2024-01-15T08:48:18;10.03;;;4.80;;
12437;SDS011;6283;51.330;12.374;2024-01-15T08:50:43;10.60;;;4.63;;
12437;SDS011;6283;51.330;12.374;2024-01-15T08:53:12;9.77;;;4.70;;
12437;SDS011;6283;51.330;12.374;2024-01-15T08:55:38;7.23;;;4.07;;
12437;SDS011;6283;51.330;12.374;2024-01-15T08:58:04;7.77;;;4.40;;
12437;SDS011;6283;51.330;12.374;2024-01-15T09:00:31;7.90;;;3.90;;
12437;SDS011;6283;51.330;12.374;2024-01-15T09:02:56;7.13;;;4.03;;
12437;SDS011;6283;51.330;12.374;2024-01-15T09:05:22;9.73;;;4.17;;
12437;SDS011;6283;51.330;12.374;2024-01-15T09:07:48;5.60;;;3.70;;
12437;SDS011;6283;51.330;12.374;2024-01-15T09:10:16;6.23;;;3.53;;
12437;SDS011;6283;51.330;12.374;2024-01-15T09:12:42;15.13;;;8.17;;
12437;SDS011;6283;51.330;12.374;2024-01-15T09:15:07;6.00;;;3.70;;
12437;SDS011;6283;51.330;12.374;2024-01-15T09:17:33;6.40;;;3.90;;
12437;SDS011;6283;51.330;12.374;2024-01-15T09:19:59;7.53;;;4.00;;
12437;SDS011;6283;51.330;12.374;2024-01-15T09:22:25;6.43;;;3.60;;
12437;SDS011;6283;51.330;12.374;2024-01-15T09:24:51;8.20;;;4.00;;
12437;SDS011;6283;51.330;12.374;2024-01-15T09:27:17;6.80;;;4.13;;
12437;SDS011;6283;51.330;12.374;2024-01-15T09:29:43;7.33;;;4.00;;
12437;SDS011;6283;51.330;12.374;2024-01-15T09:32:10;5.93;;;3.77;;
12437;SDS011;6283;51.330;12.374;2024-01-15T09:34:37;8.13;;;3.73;;
12437;SDS011;6283;51.330;12.374;2024-01-15T09:37:03;9.67;;;4.17;;
12437;SDS011;6283;51.330;12.374;2024-01-15T09:39:29;8.77;;;4.07;;
12437;SDS011;6283;51.330;12.374;2024-01-15T09:41:55;6.63;;;4.03;;
12437;SDS011;6283;51.330;12.374;2024-01-15T09:44:22;8.53;;;4.07;;
12437;SDS011;6283;51.330;12.374;2024-01-15T09:46:48;6.57;;;4.00;;
12437;SDS011;6283;51.330;12.374;2024-01-15T09:49:15;6.77;;;3.30;;
12437;SDS011;6283;51.330;12.374;2024-01-15T09:51:42;5.80;;;3.90;;
12437;SDS011;6283;51.330;12.374;2024-01-15T09:54:08;8.17;;;4.40;;
12437;SDS011;6283;51.330;12.374;2024-01-15T09:56:34;8.40;;;4.03;;
12437;SDS011;6283;51.330;12.374;2024-01-15T09:59:00;7.07;;;3.90;;
12437;SDS011;6283;51.330;12.374;2024-01-15T10:01:27;9.67;;;4.00;;
12437;SDS011;6283;51.330;12.374;2024-01-15T10:03:54;6.43;;;4.17;;
12437;SDS011;6283;51.330;12.374;2024-01-15T10:06:21;7.37;;;4.20;;
12437;SDS011;6283;51.330;12.374;2024-01-15T10:08:48;8.00;;;4.10;;
12437;SDS011;6283;51.330;12.374;2024-01-15T10:11:15;7.23;;;3.73;;
12437;SDS011;6283;51.330;12.374;2024-01-15T10:13:41;5.57;;;3.33;;
12437;SDS011;6283;51.330;12.374;2024-01-15T10:16:18;8.03;;;3.83;;
12437;SDS011;6283;51.330;12.374;2024-01-15T10:18:44;6.40;;;3.80;;
12437;SDS011;6283;51.330;12.374;2024-01-15T10:21:10;7.53;;;3.63;;
12437;SDS011;6283;51.330;12.374;2024-01-15T10:23:35;9.10;;;3.87;;
12437;SDS011;6283;51.330;12.374;2024-01-15T10:26:01;6.93;;;3.70;;
12437;SDS011;6283;51.330;12.374;2024-01-15T10:28:28;6.60;;;3.87;;
12437;SDS011;6283;51.330;12.374;2024-01-15T10:30:56;8.13;;;3.90;;
12437;SDS011;6283;51.330;12.374;2024-01-15T10:33:24;7.07;;;3.60;;
12437;SDS011;6283;51.330;12.374;2024-01-15T10:35:53;8.00;;;4.00;;
12437;SDS011;6283;51.330;12.374;2024-01-15T10:38:22;6.83;;;3.70;;
12437;SDS011;6283;51.330;12.374;2024-01-15T10:40:55;9.77;;;3.77;;
12437;SDS011;6283;51.330;12.374;2024-01-15T10:43:21;9.83;;;3.90;;
12437;SDS011;6283;51.330;12.374;2024-01-15T10:45:48;7.80;;;3.90;;
12437;SDS011;6283;51.330;12.374;2024-01-15T10:48:18;6.07;;;3.53;;
12437;SDS011;6283;51.330;12.374;2024-01-15T10:50:45;8.13;;;4.10;;
12437;SDS011;6283;51.330;12.374;2024-01-15T10:53:11;6.63;;;3.40;;
12437;SDS011;6283;51.330;12.374;2024-01-15T10:55:38;9.50;;;4.17;;
12437;SDS011;6283;51.330;12.374;2024-01-15T10:58:07;6.33;;;3.37;;
12437;SDS011;6283;51.330;12.374;2024-01-15T11:00:34;10.50;;;4.40;;
12437;SDS011;6283;51.330;12.374;2024-01-15T11:03:02;7.20;;;4.33;;
12437;SDS011;6283;51.330;12.374;2024-01-15T11:05:33;9.53;;;4.00;;
12437;SDS011;6283;51.330;12.374;2024-01-15T11:08:01;8.63;;;3.90;;
12437;SDS011;6283;51.330;12.374;2024-01-15T11:10:46;11.13;;;4.07;;
12437;SDS011;6283;51.330;12.374;2024-01-15T11:15:56;5.70;;;3.87;;
12437;SDS011;6283;51.330;12.374;2024-01-15T11:18:27;7.20;;;4.03;;
12437;SDS011;6283;51.330;12.374;2024-01-15T11:23:46;5.70;;;4.00;;
12437;SDS011;6283;51.330;12.374;2024-01-15T11:29:28;6.80;;;3.97;;
12437;SDS011;6283;51.330;12.374;2024-01-15T11:32:00;6.17;;;4.10;;
12437;SDS011;6283;51.330;12.374;2024-01-15T11:37:17;7.77;;;4.20;;
12437;SDS011;6283;51.330;12.374;2024-01-15T11:39:43;4.90;;;3.30;;
12437;SDS011;6283;51.330;12.374;2024-01-15T11:42:10;5.57;;;3.37;;
12437;SDS011;6283;51.330;12.374;2024-01-15T11:44:37;7.50;;;3.97;;
12437;SDS011;6283;51.330;12.374;2024-01-15T11:47:04;6.10;;;3.70;;
12437;SDS011;6283;51.330;12.374;2024-01-15T11:52:09;7.33;;;4.47;;
12437;SDS011;6283;51.330;12.374;2024-01-15T11:54:37;7.47;;;4.20;;
12437;SDS011;6283;51.330;12.374;2024-01-15T11:57:08;6.17;;;4.40;;
12437;SDS011;6283;51.330;12.374;2024-01-15T11:59:39;8.73;;;4.30;;
12437;SDS011;6283;51.330;12.374;2024-01-15T12:02:06;8.07;;;4.73;;
12437;SDS011;6283;51.330;12.374;2024-01-15T12:04:32;6.77;;;4.40;;
12437;SDS011;6283;51.330;12.374;2024-01-15T12:06:57;8.00;;;4.17;;
12437;SDS011;6283;51.330;12.374;2024-01-15T12:09:23;6.40;;;3.87;;
12437;SDS011;6283;51.330;12.374;2024-01-15T12:11:51;6.33;;;3.67;;
12437;SDS011;6283;51.330;12.374;2024-01-15T12:14:30;6.97;;;3.97;;
12437;SDS011;6283;51.330;12.374;2024-01-15T12:16:56;8.30;;;4.13;;
12437;SDS011;6283;51.330;12.374;2024-01-15T12:19:22;6.83;;;4.00;;
12437;SDS011;6283;51.330;12.374;2024-01-15T12:21:50;8.90;;;4.80;;
12437;SDS011;6283;51.330;12.374;2024-01-15T12:24:16;6.10;;;4.10;;
12437;SDS011;6283;51.330;12.374;2024-01-15T12:26:42;9.73;;;4.10;;
12437;SDS011;6283;51.330;12.374;2024-01-15T12:29:09;8.33;;;4.47;;
12437;SDS011;6283;51.330;12.374;2024-01-15T12:31:36;7.10;;;4.17;;
12437;SDS011;6283;51.330;12.374;2024-01-15T12:34:02;6.10;;;3.57;;
12437;SDS011;6283;51.330;12.374;2024-01-15T12:36:30;7.73;;;3.50;;
12437;SDS011;6283;51.330;12.374;2024-01-15T12:38:59;5.40;;;3.90;;
12437;SDS011;6283;51.330;12.374;2024-01-15T12:41:25;7.50;;;3.53;;
12437;SDS011;6283;51.330;12.374;2024-01-15T12:43:51;5.47;;;3.73;;
12437;SDS011;6283;51.330;12.374;2024-01-15T12:46:17;5.67;;;3.70;;
12437;SDS011;6283;51.330;12.374;2024-01-15T12:48:44;4.87;;;3.10;;
12437;SDS011;6283;51.330;12.374;2024-01-15T12:51:09;8.27;;;4.10;;
12437;SDS011;6283;51.330;12.374;2024-01-15T12:53:35;6.03;;;3.37;;
12437;SDS011;6283;51.330;12.374;2024-01-15T12:56:01;7.63;;;4.03;;
12437;SDS011;6283;51.330;12.374;2024-01-15T12:58:26;10.03;;;4.17;;
12437;SDS011;6283;51.330;12.374;2024-01-15T13:00:52;7.17;;;3.83;;
12437;SDS011;6283;51.330;12.374;2024-01-15T13:03:18;7.47;;;3.80;;
12437;SDS011;6283;51.330;12.374;2024-01-15T13:05:43;6.40;;;3.80;;
12437;SDS011;6283;51.330;12.374;2024-01-15T13:08:10;5.93;;;3.90;;
12437;SDS011;6283;51.330;12.374;2024-01-15T13:10:36;6.67;;;3.93;;
12437;SDS011;6283;51.330;12.374;2024-01-15T13:13:01;7.20;;;4.20;;
12437;SDS011;6283;51.330;12.374;2024-01-15T13:15:27;5.93;;;4.00;;
12437;SDS011;6283;51.330;12.374;2024-01-15T13:17:53;8.07;;;4.13;;
12437;SDS011;6283;51.330;12.374;2024-01-15T13:20:19;6.87;;;3.90;;
12437;SDS011;6283;51.330;12.374;2024-01-15T13:22:44;7.00;;;3.70;;
12437;SDS011;6283;51.330;12.374;2024-01-15T13:25:10;6.07;;;3.43;;
12437;SDS011;6283;51.330;12.374;2024-01-15T13:27:36;5.37;;;3.67;;
12437;SDS011;6283;51.330;12.374;2024-01-15T13:30:02;7.67;;;4.03;;
12437;SDS011;6283;51.330;12.374;2024-01-15T13:32:29;6.07;;;3.83;;
12437;SDS011;6283;51.330;12.374;2024-01-15T13:34:55;8.13;;;3.63;;
12437;SDS011;6283;51.330;12.374;2024-01-15T13:37:21;5.30;;;3.50;;
12437;SDS011;6283;51.330;12.374;2024-01-15T13:39:49;7.77;;;3.87;;
12437;SDS011;6283;51.330;12.374;2024-01-15T13:42:16;6.57;;;3.73;;
12437;SDS011;6283;51.330;12.374;2024-01-15T13:44:42;5.57;;;3.70;;
12437;SDS011;6283;51.330;12.374;2024-01-15T13:47:08;6.83;;;4.27;;
12437;SDS011;6283;51.330;12.374;2024-01-15T13:49:34;5.87;;;3.67;;
12437;SDS011;6283;51.330;12.374;2024-01-15T13:52:01;7.83;;;4.07;;
12437;SDS011;6283;51.330;12.374;2024-01-15T13:54:28;7.60;;;4.47;;
12437;SDS011;6283;51.330;12.374;2024-01-15T13:56:55;5.07;;;3.70;;
12437;SDS011;6283;51.330;12.374;2024-01-15T13:59:20;5.03;;;3.50;;
12437;SDS011;6283;51.330;12.374;2024-01-15T14:01:46;9.33;;;3.50;;
12437;SDS011;6283;51.330;12.374;2024-01-15T14:04:12;6.60;;;3.60;;
12437;SDS011;6283;51.330;12.374;2024-01-15T14:06:38;6.60;;;3.87;;
12437;SDS011;6283;51.330;12.374;2024-01-15T14:09:04;5.43;;;3.53;;
12437;SDS011;6283;51.330;12.374;2024-01-15T14:11:30;5.20;;;3.40;;
12437;SDS011;6283;51.330;12.374;2024-01-15T14:13:56;5.93;;;3.60;;
12437;SDS011;6283;51.330;12.374;2024-01-15T14:16:22;4.13;;;3.17;;
12437;SDS011;6283;51.330;12.374;2024-01-15T14:18:47;4.27;;;3.10;;
12437;SDS011;6283;51.330;12.374;2024-01-15T14:21:13;6.27;;;3.53;;
12437;SDS011;6283;51.330;12.374;2024-01-15T14:23:39;7.43;;;4.10;;
12437;SDS011;6283;51.330;12.374;2024-01-15T14:26:05;8.43;;;4.10;;
12437;SDS011;6283;51.330;12.374;2024-01-15T14:28:31;7.40;;;3.60;;
12437;SDS011;6283;51.330;12.374;2024-01-15T14:30:56;6.23;;;3.50;;
12437;SDS011;6283;51.330;12.374;2024-01-15T14:33:25;5.90;;;3.90;;
12437;SDS011;6283;51.330;12.374;2024-01-15T14:35:51;7.20;;;4.07;;
12437;SDS011;6283;51.330;12.374;2024-01-15T14:38:17;5.27;;;3.87;;
12437;SDS011;6283;51.330;12.374;2024-01-15T14:40:43;5.87;;;4.13;;
12437;SDS011;6283;51.330;12.374;2024-01-15T14:43:09;7.50;;;4.03;;
12437;SDS011;6283;51.330;12.374;2024-01-15T14:45:35;7.83;;;4.23;;
12437;SDS011;6283;51.330;12.374;2024-01-15T14:48:01;7.20;;;3.80;;
12437;SDS011;6283;51.330;12.374;2024-01-15T14:50:27;8.40;;;4.00;;
12437;SDS011;6283;51.330;12.374;2024-01-15T14:52:52;7.83;;;4.07;;
12437;SDS011;6283;51.330;12.374;2024-01-15T14:55:18;9.70;;;3.47;;